Time;durP1;ratioP1;P1;durP2;ratioP2;P2;SDS_P1;SDS_P2;PMS_P1;PMS_P2;Temp;Humidity;BMP_temperature;BMP_pressure;BME280_temperature;BME280_humidity;BME280_pressure;Samples;Min_cycle;Max_cycle;Signal;HPM_P1;HPM_P2
2021/03/18 00:01:10;;;;;;;8.73;4.83;;;;;;;3.36;70.91;98983.59;1772125;81;21437;-63
2021/03/18 00:03:39;;;;;;;11.65;4.92;;;;;;;3.32;71.08;98980.58;1774812;81;21082;-66
2021/03/18 00:06:07;;;;;;;14.68;7.37;;;;;;;3.25;71.35;98979.03;1775160;80;21208;-64
2021/03/18 00:08:34;;;;;;;15.25;6.25;;;;;;;3.24;71.51;98976.89;1773190;80;21161;-62
2021/03/18 00:11:06;;;;;;;10.40;5.05;;;;;;;3.26;71.58;98980.13;1749535;81;21144;-66
2021/03/18 00:13:35;;;;;;;12.58;6.03;;;;;;;3.27;71.67;98983.08;1742486;82;21439;-62
2021/03/18 00:16:03;;;;;;;17.75;8.63;;;;;;;3.24;71.80;98980.88;1742411;82;21172;-64
2021/03/18 00:18:35;;;;;;;13.25;5.20;;;;;;;3.20;72.00;98982.34;1742513;82;21189;-65
2021/03/18 00:21:03;;;;;;;13.38;6.08;;;;;;;3.22;72.11;98977.61;1765484;81;21152;-65
2021/03/18 00:23:30;;;;;;;12.93;7.72;;;;;;;3.24;72.09;98982.20;1773175;81;21109;-65
2021/03/18 00:25:58;;;;;;;15.70;5.72;;;;;;;3.21;72.16;98980.51;1773178;80;21404;-66
2021/03/18 00:28:28;;;;;;;14.45;6.35;;;;;;;3.16;72.34;98972.38;1773129;81;21165;-65
2021/03/18 00:30:55;;;;;;;8.78;4.30;;;;;;;3.13;72.45;98972.29;1763270;80;21610;-64
2021/03/18 00:33:23;;;;;;;8.10;4.75;;;;;;;3.16;72.57;98975.86;1768933;81;22098;-65
2021/03/18 00:35:52;;;;;;;19.00;5.20;;;;;;;3.15;72.58;98975.55;1742292;82;21173;-64
2021/03/18 00:38:21;;;;;;;10.78;4.30;;;;;;;3.14;72.67;98976.58;1742399;82;21714;-63
2021/03/18 00:40:54;;;;;;;10.75;4.70;;;;;;;3.13;72.72;98976.78;1743601;81;21571;-63
2021/03/18 00:43:22;;;;;;;19.00;8.63;;;;;;;3.16;72.74;98974.53;1740043;82;21208;-63
2021/03/18 00:45:50;;;;;;;15.50;7.33;;;;;;;3.18;72.72;98973.77;1744455;82;21594;-64
2021/03/18 00:48:19;;;;;;;20.40;9.15;;;;;;;3.22;72.59;98974.95;1723010;83;21159;-62
2021/03/18 00:50:56;;;;;;;15.35;8.35;;;;;;;3.26;72.52;98970.82;1764641;80;22204;-62
2021/03/18 00:53:30;;;;;;;20.95;7.05;;;;;;;3.31;72.41;98968.86;1773258;80;21164;-62
2021/03/18 00:55:58;;;;;;;26.82;7.92;;;;;;;3.33;72.27;98968.11;1725597;80;21594;-64
2021/03/18 00:58:25;;;;;;;21.50;8.73;;;;;;;3.32;72.11;98968.62;1736853;82;21656;-63
2021/03/18 01:00:55;;;;;;;20.57;8.28;;;;;;;3.33;72.06;98970.77;1744485;80;21121;-64
2021/03/18 01:03:26;;;;;;;20.30;7.05;;;;;;;3.34;72.06;98965.75;1742925;82;21360;-62
2021/03/18 01:06:11;;;;;;;12.80;5.42;;;;;;;3.34;71.99;98969.22;1742686;82;21215;-64
2021/03/18 01:08:39;;;;;;;19.32;7.37;;;;;;;3.31;71.94;98969.64;1734575;80;21133;-64
2021/03/18 01:11:16;;;;;;;18.60;6.75;;;;;;;3.30;72.03;98973.88;1772830;80;22295;-64
2021/03/18 01:13:55;;;;;;;14.63;7.35;;;;;;;3.28;72.06;98967.95;1739428;82;21138;-64
2021/03/18 01:16:28;;;;;;;66.12;25.95;;;;;;;3.26;72.02;98966.84;1742995;79;21411;-63
2021/03/18 01:19:01;;;;;;;41.88;15.75;;;;;;;3.25;72.00;98965.75;1739970;81;21002;-65
2021/03/18 01:21:39;;;;;;;43.02;13.68;;;;;;;3.21;72.01;98966.71;1765034;81;21164;-64
2021/03/18 01:24:07;;;;;;;38.58;14.58;;;;;;;3.20;72.10;98962.94;1770522;81;21160;-68
2021/03/18 01:26:35;;;;;;;64.58;23.98;;;;;;;3.20;72.10;98969.06;1772641;80;21094;-63
2021/03/18 01:29:04;;;;;;;48.45;18.80;;;;;;;3.22;72.05;98968.83;1748735;81;21216;-65
2021/03/18 01:31:33;;;;;;;72.90;23.47;;;;;;;3.17;72.10;98964.17;1741645;81;21156;-65
2021/03/18 01:34:01;;;;;;;35.17;11.35;;;;;;;3.17;72.17;98959.38;1742921;81;21094;-64
2021/03/18 01:36:31;;;;;;;35.90;12.30;;;;;;;3.15;72.15;98963.59;1766900;81;21157;-64
2021/03/18 01:38:58;;;;;;;23.02;9.83;;;;;;;3.16;72.19;98959.91;1770306;81;21161;-66
2021/03/18 01:41:27;;;;;;;23.77;9.08;;;;;;;3.15;72.12;98961.45;1770190;80;21299;-65
2021/03/18 01:43:55;;;;;;;16.00;7.97;;;;;;;3.11;72.22;98960.27;1765516;80;21701;-64
2021/03/18 01:46:23;;;;;;;32.10;10.95;;;;;;;3.02;72.41;98961.86;1756595;81;21563;-63
2021/03/18 01:48:53;;;;;;;62.27;21.60;;;;;;;2.97;72.58;98968.89;1768317;81;21582;-64
2021/03/18 01:51:20;;;;;;;32.10;15.78;;;;;;;2.95;72.63;98967.77;1750478;81;21158;-64
2021/03/18 01:53:49;;;;;;;32.03;11.38;;;;;;;2.97;72.63;98961.70;1735044;81;21494;-64
2021/03/18 01:56:16;;;;;;;29.40;11.25;;;;;;;2.95;72.65;98956.33;1723249;82;21185;-65
2021/03/18 01:58:45;;;;;;;40.25;11.97;;;;;;;2.96;72.73;98970.73;1742773;82;21605;-65
2021/03/18 02:01:15;;;;;;;29.75;11.93;;;;;;;2.92;72.82;98969.55;1717913;80;21196;-64
2021/03/18 02:03:42;;;;;;;25.30;10.90;;;;;;;2.88;72.95;98963.53;1745864;80;21203;-66
2021/03/18 02:06:10;;;;;;;21.68;9.00;;;;;;;2.83;73.13;98972.70;1773707;80;21210;-65
2021/03/18 02:08:37;;;;;;;21.20;9.80;;;;;;;2.84;73.17;98970.31;1773890;80;21184;-64
2021/03/18 02:11:05;;;;;;;20.02;8.73;;;;;;;2.82;73.00;98961.26;1772512;80;21128;-61
2021/03/18 02:13:33;;;;;;;11.00;7.78;;;;;;;2.74;72.87;98966.81;1766773;79;21133;-61
2021/03/18 02:16:09;;;;;;;25.85;9.80;;;;;;;2.70;72.96;98968.28;1770728;80;21149;-63
2021/03/18 02:19:29;;;;;;;24.85;10.25;;;;;;;2.72;72.98;98964.91;1773016;80;21265;-62
2021/03/18 02:22:23;;;;;;;11.73;6.15;;;;;;;2.71;72.91;98963.80;1752092;81;21115;-61
2021/03/18 02:25:10;;;;;;;21.50;7.37;;;;;;;2.70;72.83;98966.95;1739845;81;21151;-61
2021/03/18 02:28:31;;;;;;;17.73;8.75;;;;;;;2.62;72.84;98975.20;1732544;80;21121;-61
2021/03/18 02:31:11;;;;;;;18.73;8.45;;;;;;;2.60;73.01;98970.09;1767976;80;21147;-61
2021/03/18 02:34:01;;;;;;;9.63;6.78;;;;;;;2.63;72.83;98964.89;1742625;82;23661;-61
2021/03/18 02:36:45;;;;;;;16.87;9.90;;;;;;;2.61;72.70;98967.75;1754143;81;21567;-62
2021/03/18 02:39:22;;;;;;;21.45;11.95;;;;;;;2.60;72.76;98966.63;1742666;82;21030;-61
2021/03/18 02:41:59;;;;;;;23.20;8.60;;;;;;;2.66;72.69;98964.44;1820208;76;22731;-62
2021/03/18 02:44:29;;;;;;;24.52;10.75;;;;;;;2.56;72.75;98969.42;1751353;81;20999;-61
2021/03/18 02:47:02;;;;;;;18.75;8.50;;;;;;;2.54;72.75;98974.15;1772334;81;21574;-62
2021/03/18 02:49:31;;;;;;;17.23;8.17;;;;;;;2.53;72.82;98969.35;1748985;81;21019;-65
2021/03/18 02:51:59;;;;;;;14.78;6.97;;;;;;;2.52;72.91;98976.19;1734145;82;21555;-63
2021/03/18 02:54:27;;;;;;;17.73;7.12;;;;;;;2.55;72.90;98981.06;1707561;82;21563;-61
2021/03/18 02:56:58;;;;;;;10.48;5.90;;;;;;;2.54;72.78;98987.42;1783222;80;21016;-62
2021/03/18 02:59:29;;;;;;;19.30;8.63;;;;;;;2.55;72.79;98985.04;1784652;79;21369;-62
2021/03/18 03:01:56;;;;;;;18.67;7.90;;;;;;;2.55;72.72;98994.33;1800500;79;21580;-61
2021/03/18 03:04:25;;;;;;;11.93;6.45;;;;;;;2.54;72.69;98991.40;1806527;79;21598;-63
2021/03/18 03:06:54;;;;;;;15.15;6.78;;;;;;;2.54;72.80;98993.52;1806427;79;21115;-61
2021/03/18 03:09:21;;;;;;;22.20;7.17;;;;;;;2.53;72.63;98996.41;1806440;79;21190;-61
2021/03/18 03:11:49;;;;;;;24.43;10.05;;;;;;;2.53;72.70;98996.41;1788025;79;21368;-60
2021/03/18 03:14:16;;;;;;;33.45;16.90;;;;;;;2.55;72.69;98995.66;1784782;80;21571;-63
2021/03/18 03:16:44;;;;;;;35.48;14.25;;;;;;;2.53;72.53;98993.75;1784903;80;21114;-62
2021/03/18 03:19:12;;;;;;;22.00;10.88;;;;;;;2.54;72.62;99000.69;1785153;79;21121;-61
2021/03/18 03:21:43;;;;;;;19.37;10.05;;;;;;;2.57;72.57;98994.94;1785690;79;21543;-61
2021/03/18 03:24:12;;;;;;;18.75;8.50;;;;;;;2.54;72.53;99006.78;1784925;80;21367;-62
2021/03/18 03:26:39;;;;;;;29.20;12.03;;;;;;;2.52;72.64;99002.22;1732301;80;21630;-61
2021/03/18 03:29:08;;;;;;;44.23;15.03;;;;;;;2.50;72.64;99001.61;1786218;79;21172;-61
2021/03/18 03:31:36;;;;;;;32.17;10.40;;;;;;;2.49;72.70;99002.66;1807844;79;21011;-62
2021/03/18 03:34:06;;;;;;;13.88;7.97;;;;;;;2.42;72.82;98997.08;1817060;79;20995;-61
2021/03/18 03:36:35;;;;;;;23.25;10.80;;;;;;;2.40;73.01;98992.52;1817042;79;21434;-62
2021/03/18 03:39:06;;;;;;;54.33;24.47;;;;;;;2.40;73.14;98995.17;1816963;79;21603;-61
2021/03/18 03:41:34;;;;;;;21.82;10.20;;;;;;;2.35;73.23;98997.66;1815914;79;21149;-60
2021/03/18 03:44:03;;;;;;;39.10;14.78;;;;;;;2.31;73.53;99003.88;1817162;79;21583;-62
2021/03/18 03:46:31;;;;;;;52.55;18.42;;;;;;;2.34;73.46;99012.75;1817119;79;21157;-60
2021/03/18 03:49:03;;;;;;;39.83;15.60;;;;;;;2.36;73.36;99012.01;1816903;79;21188;-61
2021/03/18 03:51:51;;;;;;;27.13;11.70;;;;;;;2.39;73.31;99010.27;1794985;78;21223;-61
2021/03/18 03:54:20;;;;;;;31.77;13.65;;;;;;;2.42;73.10;99005.05;1809517;79;21082;-60
2021/03/18 03:57:01;;;;;;;32.25;12.15;;;;;;;2.44;73.07;99018.41;1810865;79;21094;-61
2021/03/18 03:59:29;;;;;;;28.50;10.98;;;;;;;2.46;73.05;99016.34;1785237;79;21141;-63
2021/03/18 04:01:57;;;;;;;32.23;10.30;;;;;;;2.48;72.96;99017.46;1804459;79;22155;-62
2021/03/18 04:04:31;;;;;;;30.60;15.53;;;;;;;2.49;72.88;99017.26;1816476;78;21125;-61
2021/03/18 04:07:01;;;;;;;30.30;10.95;;;;;;;2.51;72.79;99021.81;1816780;79;21011;-62
2021/03/18 04:09:30;;;;;;;25.97;11.65;;;;;;;2.50;72.70;99027.33;1760695;79;21137;-62
2021/03/18 04:12:00;;;;;;;25.40;9.10;;;;;;;2.44;72.69;99021.06;1791685;79;21160;-60
2021/03/18 04:14:32;;;;;;;20.32;9.48;;;;;;;2.40;72.76;99021.70;1725871;82;21420;-61
2021/03/18 04:17:06;;;;;;;17.90;8.28;;;;;;;2.35;73.03;99028.95;1731703;81;21232;-62
2021/03/18 04:19:35;;;;;;;22.10;7.83;;;;;;;2.35;73.12;99025.52;1727233;82;21109;-62
2021/03/18 04:22:03;;;;;;;20.97;9.85;;;;;;;2.36;73.11;99032.42;1758617;81;21754;-62
2021/03/18 04:24:30;;;;;;;17.62;7.53;;;;;;;2.28;73.37;99031.35;1816226;79;21114;-61
2021/03/18 04:26:58;;;;;;;15.03;7.28;;;;;;;2.23;73.58;99029.34;1813358;79;21189;-63
2021/03/18 04:29:25;;;;;;;14.38;6.97;;;;;;;2.21;73.79;99030.59;1807166;79;21137;-62
2021/03/18 04:31:53;;;;;;;19.65;9.08;;;;;;;2.23;73.86;99029.84;1816457;78;21098;-62
2021/03/18 04:34:21;;;;;;;20.37;7.45;;;;;;;2.21;73.98;99026.07;1761466;79;21532;-62
2021/03/18 04:36:49;;;;;;;18.62;7.87;;;;;;;2.24;73.91;99024.34;1814415;79;21177;-63
2021/03/18 04:39:16;;;;;;;22.07;7.60;;;;;;;2.27;73.87;99033.70;1714840;82;21314;-62
2021/03/18 04:41:44;;;;;;;20.60;7.58;;;;;;;2.29;73.81;99035.64;1715797;82;21234;-63
2021/03/18 04:44:14;;;;;;;19.20;7.28;;;;;;;2.34;73.80;99038.47;1714169;82;20979;-63
2021/03/18 04:46:46;;;;;;;15.65;7.20;;;;;;;2.32;73.72;99040.00;1774304;80;21227;-63
2021/03/18 04:49:16;;;;;;;16.73;9.35;;;;;;;2.31;73.68;99042.34;1763006;80;21578;-63
2021/03/18 04:51:45;;;;;;;19.65;9.18;;;;;;;2.28;73.72;99044.11;1766779;80;21480;-63
2021/03/18 04:54:12;;;;;;;18.87;6.78;;;;;;;2.24;73.87;99046.07;1791584;80;21080;-61
2021/03/18 04:56:42;;;;;;;20.88;8.45;;;;;;;2.23;74.01;99049.74;1789279;80;21196;-62
2021/03/18 04:59:12;;;;;;;16.42;8.98;;;;;;;2.22;74.08;99045.45;1771011;80;21186;-62
2021/03/18 05:01:41;;;;;;;17.57;7.07;;;;;;;2.18;74.11;99047.22;1681746;81;36731;-62
2021/03/18 05:04:09;;;;;;;32.30;8.68;;;;;;;2.17;74.13;99051.40;1732415;82;21410;-63
2021/03/18 05:06:37;;;;;;;39.42;10.85;;;;;;;2.16;74.20;99057.21;1731153;82;21578;-62
2021/03/18 05:09:06;;;;;;;36.30;15.10;;;;;;;2.21;74.15;99053.14;1730538;82;21133;-65
2021/03/18 05:11:34;;;;;;;34.03;15.05;;;;;;;2.24;74.09;99054.03;1731904;82;21145;-63
2021/03/18 05:14:02;;;;;;;55.52;21.07;;;;;;;2.26;73.93;99056.76;1665837;84;21582;-63
2021/03/18 05:16:29;;;;;;;31.17;16.07;;;;;;;2.27;73.85;99061.05;1703023;84;21362;-62
2021/03/18 05:18:57;;;;;;;37.13;15.05;;;;;;;2.30;73.67;99060.64;1726401;82;21129;-61
2021/03/18 05:21:24;;;;;;;27.05;11.50;;;;;;;2.31;73.58;99062.25;1731440;82;21555;-64
2021/03/18 05:23:52;;;;;;;21.85;10.80;;;;;;;2.29;73.22;99059.01;1731892;82;21129;-62
2021/03/18 05:26:21;;;;;;;28.67;10.28;;;;;;;2.27;73.15;99068.19;1731793;82;21291;-63
2021/03/18 05:28:48;;;;;;;20.88;11.08;;;;;;;2.28;73.23;99070.64;1732242;82;21294;-60
2021/03/18 05:31:15;;;;;;;41.68;14.40;;;;;;;2.25;72.98;99067.09;1731681;82;21221;-61
2021/03/18 05:33:43;;;;;;;30.60;14.07;;;;;;;2.22;73.16;99070.15;1732477;82;21185;-61
2021/03/18 05:36:11;;;;;;;35.43;13.95;;;;;;;2.28;73.25;99077.78;1707248;82;21178;-63
2021/03/18 05:38:38;;;;;;;23.98;9.58;;;;;;;2.33;73.28;99077.45;1701480;84;21190;-62
2021/03/18 05:41:06;;;;;;;28.60;11.88;;;;;;;2.37;73.30;99088.45;1726140;82;21421;-61
2021/03/18 05:43:34;;;;;;;23.42;13.55;;;;;;;2.39;73.37;99084.57;1707949;84;21197;-61
2021/03/18 05:46:02;;;;;;;17.27;9.53;;;;;;;2.45;73.34;99091.66;1707950;83;21197;-62
2021/03/18 05:48:30;;;;;;;24.45;11.50;;;;;;;2.51;73.43;99087.34;1739040;82;21642;-61
2021/03/18 05:50:57;;;;;;;27.85;12.78;;;;;;;2.54;73.69;99092.25;1699957;84;21412;-62
2021/03/18 05:53:25;;;;;;;19.73;9.18;;;;;;;2.56;74.04;99096.31;1751402;79;22264;-61
2021/03/18 05:55:52;;;;;;;13.88;6.92;;;;;;;2.63;74.20;99094.95;1765276;80;21654;-61
2021/03/18 05:58:23;;;;;;;18.80;8.70;;;;;;;2.65;74.46;99099.52;1765365;81;21537;-61
2021/03/18 06:00:51;;;;;;;15.03;7.97;;;;;;;2.67;74.51;99092.17;1757651;80;21026;-61
2021/03/18 06:03:20;;;;;;;13.90;7.20;;;;;;;2.70;74.66;99092.24;1763422;81;21213;-62
2021/03/18 06:05:49;;;;;;;18.12;6.70;;;;;;;2.72;74.80;99095.00;1763839;80;21189;-62
2021/03/18 06:08:16;;;;;;;15.25;7.33;;;;;;;2.74;74.88;99096.09;1765164;80;21193;-64
2021/03/18 06:10:44;;;;;;;11.68;5.25;;;;;;;2.77;75.04;99104.47;1759387;81;20948;-62
2021/03/18 06:13:11;;;;;;;13.32;7.35;;;;;;;2.79;75.16;99106.38;1736139;81;21197;-62
2021/03/18 06:15:39;;;;;;;20.10;8.20;;;;;;;2.84;75.15;99106.55;1765248;81;21563;-61
2021/03/18 06:18:07;;;;;;;15.43;6.40;;;;;;;2.87;75.06;99106.14;1765700;81;21307;-61
2021/03/18 06:20:35;;;;;;;11.28;6.83;;;;;;;2.94;75.10;99103.42;1723748;81;21165;-61
2021/03/18 06:23:08;;;;;;;12.50;7.55;;;;;;;2.94;75.00;99100.77;1748666;81;21015;-62
2021/03/18 06:25:37;;;;;;;;;;;;;;;2.94;75.07;99104.75;1767984;80;21008;-61
2021/03/18 06:28:26;;;;;;;15.60;6.95;;;;;;;2.97;75.19;99110.44;1765319;81;20486;-62
2021/03/18 06:31:06;;;;;;;21.23;8.98;;;;;;;3.03;75.29;99114.08;1764487;81;21388;-61
2021/03/18 06:33:48;;;;;;;15.03;7.78;;;;;;;3.07;75.37;99116.60;1764980;81;21196;-62
2021/03/18 06:36:32;;;;;;;;;;;;;;;3.07;75.36;99116.60;1766848;80;21030;-64
2021/03/18 06:39:10;;;;;;;8.30;5.45;;;;;;;3.13;75.49;99119.73;1757736;81;20260;-62
2021/03/18 06:41:44;;;;;;;12.10;6.65;;;;;;;3.19;75.45;99116.22;1748902;81;21606;-63
2021/03/18 06:44:24;;;;;;;17.17;8.40;;;;;;;3.28;75.31;99108.28;1753136;81;21273;-63
2021/03/18 06:46:54;;;;;;;14.90;8.33;;;;;;;3.38;75.00;99111.77;1721558;83;21618;-61
2021/03/18 06:49:23;;;;;;;21.23;7.85;;;;;;;3.50;74.89;99116.69;1753145;81;21646;-63
2021/03/18 06:52:07;;;;;;;12.00;7.65;;;;;;;3.53;74.59;99115.43;1706496;83;21187;-63
2021/03/18 06:54:36;;;;;;;10.60;6.00;;;;;;;3.55;74.62;99121.35;1752962;81;21145;-62
2021/03/18 06:57:05;;;;;;;10.32;6.83;;;;;;;3.62;74.70;99115.44;1735358;82;21640;-61
2021/03/18 06:59:35;;;;;;;11.20;6.50;;;;;;;3.62;74.82;99109.61;1753314;81;21132;-63
2021/03/18 07:02:15;;;;;;;17.25;8.13;;;;;;;3.63;74.82;99113.09;1753572;81;21205;-61
2021/03/18 07:04:47;;;;;;;14.47;9.55;;;;;;;3.70;74.89;99117.81;1753057;81;21196;-61
2021/03/18 07:07:15;;;;;;;16.65;7.90;;;;;;;3.81;75.06;99111.78;1753035;81;21101;-61
2021/03/18 07:09:45;;;;;;;9.83;7.00;;;;;;;3.95;74.96;99114.08;1752909;81;21252;-62
2021/03/18 07:12:16;;;;;;;12.50;8.55;;;;;;;4.08;74.43;99113.11;1704465;83;21120;-61
2021/03/18 07:14:49;;;;;;;18.52;8.60;;;;;;;4.19;74.11;99114.22;1753036;81;21036;-63
2021/03/18 07:17:29;;;;;;;26.33;8.43;;;;;;;4.22;73.66;99118.58;1753184;81;21190;-62
2021/03/18 07:20:21;;;;;;;17.35;7.70;;;;;;;4.27;73.47;99118.72;1705763;84;21132;-63
2021/03/18 07:22:54;;;;;;;12.10;7.50;;;;;;;4.34;73.12;99122.13;1753062;81;21657;-62
2021/03/18 07:25:28;;;;;;;15.50;7.97;;;;;;;4.35;72.70;99122.95;1753202;81;21168;-61
2021/03/18 07:28:01;;;;;;;20.15;7.28;;;;;;;4.32;73.02;99117.53;1705881;84;21164;-61
2021/03/18 07:30:34;;;;;;;23.10;8.78;;;;;;;4.38;73.03;99120.64;1753416;81;21176;-61
2021/03/18 07:33:02;;;;;;;13.40;8.40;;;;;;;4.44;72.95;99123.45;1735444;82;21553;-61
2021/03/18 07:35:31;;;;;;;15.93;8.98;;;;;;;4.53;72.93;99124.25;1753174;81;21341;-61
2021/03/18 07:37:58;;;;;;;10.03;7.05;;;;;;;4.58;72.71;99124.91;1706114;84;21167;-62
2021/03/18 07:40:27;;;;;;;20.52;9.85;;;;;;;4.58;72.61;99129.71;1754192;81;21134;-62
2021/03/18 07:42:56;;;;;;;23.47;12.13;;;;;;;4.59;72.69;99132.67;1747019;82;21201;-62
2021/03/18 07:45:25;;;;;;;18.95;7.78;;;;;;;4.58;72.72;99136.88;1732376;82;21621;-62
2021/03/18 07:47:52;;;;;;;19.48;8.95;;;;;;;4.70;72.35;99129.23;1731917;82;21216;-62
2021/03/18 07:50:33;;;;;;;26.30;8.70;;;;;;;4.70;72.35;99129.23;1748740;82;21133;-61
2021/03/18 07:53:00;;;;;;;21.82;8.53;;;;;;;4.73;71.77;99125.31;1727364;82;21169;-61
2021/03/18 07:55:31;;;;;;;8.88;7.40;;;;;;;4.82;71.57;99126.63;1750063;81;21189;-62
2021/03/18 07:57:58;;;;;;;18.20;8.50;;;;;;;4.89;71.18;99116.70;1740642;81;21162;-63
2021/03/18 08:00:26;;;;;;;22.73;7.78;;;;;;;4.90;70.36;99123.63;1753198;81;21377;-64
2021/03/18 08:03:15;;;;;;;18.82;8.43;;;;;;;4.93;69.94;99121.86;1753045;81;21603;-62
2021/03/18 08:05:43;;;;;;;11.93;6.97;;;;;;;4.93;70.20;99127.70;1741394;81;21170;-64
2021/03/18 08:08:10;;;;;;;14.53;8.15;;;;;;;4.99;70.49;99117.48;1753166;81;21994;-61
2021/03/18 08:10:41;;;;;;;24.00;7.85;;;;;;;5.06;70.12;99131.51;1712112;81;21206;-63
2021/03/18 08:13:09;;;;;;;17.95;7.60;;;;;;;5.10;69.69;99123.34;1753333;81;22298;-61
2021/03/18 08:15:44;;;;;;;23.98;10.63;;;;;;;5.13;68.89;99123.69;1752381;81;21161;-67
2021/03/18 08:18:19;;;;;;;21.40;11.10;;;;;;;5.18;69.07;99123.81;1753324;81;22213;-61
2021/03/18 08:20:52;;;;;;;16.65;9.63;;;;;;;5.24;69.40;99127.42;1749561;81;21595;-63
2021/03/18 08:23:29;;;;;;;;;;;;;;;5.27;69.04;99132.32;1724382;83;21173;-61
2021/03/18 08:26:05;;;;;;;17.87;8.90;;;;;;;5.27;69.00;99132.32;1744742;81;21564;-62
2021/03/18 08:28:46;;;;;;;16.93;8.98;;;;;;;5.27;69.33;99125.11;1753140;81;21130;-61
2021/03/18 08:31:19;;;;;;;11.97;7.63;;;;;;;5.27;69.55;99129.11;1753219;81;21162;-63
2021/03/18 08:33:51;;;;;;;21.77;9.25;;;;;;;5.28;69.34;99128.07;1753129;81;21126;-63
2021/03/18 08:36:54;;;;;;;26.57;12.43;;;;;;;5.33;69.13;99130.05;1725704;81;21166;-61
2021/03/18 08:39:45;;;;;;;21.60;11.53;;;;;;;5.34;68.74;99126.87;1743672;81;22184;-61
2021/03/18 08:42:35;;;;;;;23.92;9.65;;;;;;;5.33;68.52;99133.23;1746570;81;21280;-63
2021/03/18 08:45:08;;;;;;;22.67;13.15;;;;;;;5.35;68.65;99123.16;1704633;84;21629;-63
2021/03/18 08:47:41;;;;;;;16.23;9.63;;;;;;;5.40;68.67;99124.63;1732787;82;21137;-62
2021/03/18 08:50:14;;;;;;;27.13;9.95;;;;;;;5.42;68.05;99130.55;1742075;82;21391;-63
2021/03/18 08:52:43;;;;;;;18.87;9.60;;;;;;;5.43;67.73;99130.81;1737346;82;21380;-64
2021/03/18 08:55:12;;;;;;;19.60;8.88;;;;;;;5.47;67.80;99131.97;1733847;82;21160;-62
2021/03/18 08:57:40;;;;;;;20.10;8.98;;;;;;;5.50;67.82;99136.35;1733798;82;21192;-62
2021/03/18 09:00:16;;;;;;;19.27;10.45;;;;;;;5.49;66.73;99133.91;1731909;82;21232;-62
2021/03/18 09:02:45;;;;;;;28.90;9.98;;;;;;;5.48;66.95;99134.94;1734138;82;21574;-63
2021/03/18 09:05:23;;;;;;;27.27;11.97;;;;;;;5.43;66.80;99135.62;1734072;82;21177;-62
2021/03/18 09:08:01;;;;;;;30.80;11.80;;;;;;;5.42;67.24;99136.67;1733876;82;21611;-62
2021/03/18 09:10:36;;;;;;;22.13;10.50;;;;;;;5.50;67.34;99144.88;1733890;82;21701;-62
2021/03/18 09:13:20;;;;;;;12.07;7.47;;;;;;;5.53;66.66;99142.55;1704334;84;21123;-63
2021/03/18 09:15:57;;;;;;;;;;;;;;;5.53;66.60;99137.73;1707163;84;21183;-63
2021/03/18 09:18:42;;;;;;;20.70;8.95;;;;;;;5.51;66.48;99156.66;1720816;82;21365;-62
2021/03/18 09:21:18;;;;;;;14.95;6.80;;;;;;;5.47;66.20;99142.64;1707367;82;21204;-63
2021/03/18 09:23:54;;;;;;;17.62;7.65;;;;;;;5.50;66.34;99131.53;1709308;82;21586;-62
2021/03/18 09:26:27;;;;;;;20.35;10.15;;;;;;;5.51;65.66;99135.83;1741300;82;21036;-64
2021/03/18 09:29:05;;;;;;;22.30;8.25;;;;;;;5.50;66.00;99134.20;1713465;82;21124;-61
2021/03/18 09:31:38;;;;;;;21.80;9.03;;;;;;;5.47;65.87;99135.45;1685975;82;21955;-61
2021/03/18 09:34:16;;;;;;;15.30;7.80;;;;;;;5.53;66.17;99137.73;1733713;82;21120;-61
2021/03/18 09:36:45;;;;;;;21.33;9.20;;;;;;;5.61;65.94;99135.53;1734153;82;21026;-63
2021/03/18 09:39:16;;;;;;;20.48;9.90;;;;;;;5.65;65.53;99137.23;1733840;82;22653;-62
2021/03/18 09:41:49;;;;;;;18.98;10.20;;;;;;;5.64;65.84;99132.94;1708412;79;21180;-63
2021/03/18 09:44:27;;;;;;;16.45;9.23;;;;;;;5.56;65.38;99131.41;1764505;81;21381;-62
2021/03/18 09:47:09;;;;;;;17.67;10.68;;;;;;;5.49;64.95;99143.23;1740894;81;21205;-61
2021/03/18 09:49:49;;;;;;;16.97;10.03;;;;;;;5.45;65.11;99133.56;1733625;81;21146;-63
2021/03/18 09:52:29;;;;;;;6.42;5.28;;;;;;;5.37;66.41;99134.42;1708636;82;21129;-63
2021/03/18 09:55:02;;;;;;;12.77;8.47;;;;;;;5.28;66.73;99148.06;1732257;82;21137;-64
2021/03/18 09:57:33;;;;;;;14.45;7.10;;;;;;;5.32;67.04;99150.30;1725908;81;21388;-63
2021/03/18 10:00:03;;;;;;;19.17;7.72;;;;;;;5.33;66.95;99148.71;1763842;81;21200;-64
2021/03/18 10:02:36;;;;;;;13.93;6.85;;;;;;;5.33;67.00;99142.56;1760913;81;21636;-63
2021/03/18 10:05:10;;;;;;;15.80;7.55;;;;;;;5.34;66.91;99142.34;1765032;81;21117;-62
2021/03/18 10:07:45;;;;;;;16.70;7.95;;;;;;;5.41;66.97;99136.40;1748008;81;21125;-63
2021/03/18 10:10:21;;;;;;;23.32;8.53;;;;;;;5.41;66.52;99137.73;1757003;81;21372;-63
2021/03/18 10:12:59;;;;;;;13.20;7.25;;;;;;;5.41;66.42;99142.25;1750786;81;21699;-63
2021/03/18 10:15:35;;;;;;;11.22;6.95;;;;;;;5.45;66.00;99143.41;1738258;81;21210;-62
2021/03/18 10:18:13;;;;;;;18.98;10.40;;;;;;;5.52;65.86;99143.58;1765092;81;21039;-64
2021/03/18 10:20:57;;;;;;;18.73;7.92;;;;;;;5.49;63.43;99140.57;1730639;82;21186;-62
2021/03/18 10:23:34;;;;;;;20.52;7.45;;;;;;;5.49;63.43;99140.57;1722054;81;21386;-62
2021/03/18 10:26:06;;;;;;;11.68;5.85;;;;;;;5.47;63.07;99143.46;1765155;81;21193;-62
2021/03/18 10:28:43;;;;;;;12.63;6.28;;;;;;;5.55;62.87;99143.66;1726394;81;21199;-62
2021/03/18 10:31:19;;;;;;;11.90;6.78;;;;;;;5.64;62.84;99148.94;1737084;81;21158;-62
2021/03/18 10:33:55;;;;;;;15.30;8.48;;;;;;;5.68;62.50;99140.76;1739958;81;21170;-62
2021/03/18 10:36:42;;;;;;;18.85;8.13;;;;;;;5.66;62.11;99150.84;1715421;82;21398;-63
2021/03/18 10:39:20;;;;;;;11.05;7.17;;;;;;;5.61;62.34;99139.53;1754834;81;21194;-62
2021/03/18 10:42:03;;;;;;;12.90;7.85;;;;;;;5.60;61.90;99147.27;1738892;81;21189;-61
2021/03/18 10:44:53;;;;;;;;;;;;;;;;;;;;;
2021/03/18 10:47:35;;;;;;;14.50;5.93;;;;;;;5.78;60.94;99146.86;1833192;76;26701;-63
2021/03/18 10:50:15;;;;;;;18.32;7.05;;;;;;;5.80;60.81;99151.45;1762535;80;20999;-62
2021/03/18 10:53:05;;;;;;;10.40;5.83;;;;;;;5.86;60.04;99149.98;1778399;80;21387;-61
2021/03/18 10:55:47;;;;;;;25.77;9.30;;;;;;;5.88;59.76;99148.45;1774983;80;21585;-62
2021/03/18 10:58:25;;;;;;;17.35;7.42;;;;;;;5.88;59.71;99148.45;1759907;80;21062;-61
2021/03/18 11:01:09;;;;;;;16.27;7.28;;;;;;;5.90;60.19;99149.83;1758719;80;21007;-62
2021/03/18 11:03:48;;;;;;;19.55;9.20;;;;;;;5.94;60.29;99153.69;1783316;80;21011;-62
2021/03/18 11:06:25;;;;;;;30.32;9.90;;;;;;;5.91;59.89;99155.98;1754221;80;21365;-63
2021/03/18 11:09:02;;;;;;;7.45;5.08;;;;;;;5.90;60.19;99161.05;1754295;80;21011;-63
2021/03/18 11:11:38;;;;;;;9.53;6.67;;;;;;;5.94;60.19;99155.54;1728713;81;21617;-63
2021/03/18 11:14:30;;;;;;;7.50;5.10;;;;;;;6.00;60.44;99154.06;1863755;76;26116;-63
2021/03/18 11:17:09;;;;;;;12.65;4.55;;;;;;;5.94;60.67;99153.69;1825913;77;21580;-65
2021/03/18 11:20:18;;;;;;;10.50;5.03;;;;;;;5.91;60.84;99149.31;1820558;78;21377;-62
2021/03/18 11:22:55;;;;;;;18.70;10.03;;;;;;;5.86;61.23;99153.17;1820813;78;21624;-63
2021/03/18 11:25:38;;;;;;;13.55;8.60;;;;;;;5.84;61.79;99145.93;1820323;77;21031;-61
2021/03/18 11:28:15;;;;;;;11.12;7.03;;;;;;;5.83;62.08;99149.64;1815377;78;21483;-65
2021/03/18 11:30:46;;;;;;;14.35;6.12;;;;;;;5.82;62.35;99150.16;1810081;77;27210;-63
2021/03/18 11:33:21;;;;;;;12.85;5.35;;;;;;;5.79;62.33;99150.63;1847881;77;21194;-62
2021/03/18 11:35:56;;;;;;;9.05;5.83;;;;;;;5.71;62.56;99157.63;1809889;77;21062;-64
2021/03/18 11:38:27;;;;;;;11.20;6.42;;;;;;;5.62;62.93;99150.50;1826110;77;21655;-63
2021/03/18 11:41:04;;;;;;;13.43;8.23;;;;;;;5.60;63.21;99144.59;1833402;77;21046;-63
2021/03/18 11:43:38;;;;;;;16.37;6.05;;;;;;;5.62;63.52;99154.49;1822768;77;21145;-64
2021/03/18 11:46:22;;;;;;;7.78;5.58;;;;;;;5.61;64.01;99150.20;1793375;77;22067;-63
2021/03/18 11:48:59;;;;;;;13.72;6.72;;;;;;;5.62;64.50;99159.02;1841379;77;21243;-64
2021/03/18 11:51:48;;;;;;;7.70;5.42;;;;;;;5.64;64.64;99144.42;1849491;77;21019;-63
2021/03/18 11:54:23;;;;;;;16.07;5.35;;;;;;;5.68;64.80;99150.91;1785654;79;21720;-62
2021/03/18 11:56:56;;;;;;;10.25;6.55;;;;;;;5.72;64.63;99148.59;1809414;78;21197;-64
2021/03/18 11:59:38;;;;;;;12.90;6.70;;;;;;;5.69;64.16;99157.88;1826908;77;22055;-69
2021/03/18 12:02:14;;;;;;;10.48;6.42;;;;;;;5.58;64.39;99152.52;1783197;78;21130;-64